ENTC Airport Information

Runway Information
Runway 18 Length 7848 ft width 148 ft Elevation 13 ft Threshold 1286 ft Heading 193
Runway 36 Length 7848 ft Width 148 ft Elevation 25 ft Threshold N/A Heading 13
Airport Frequencies
Type APP Name APP Frequency 123.75 MHZ
Type ATIS Name ATIS Frequency 126.125 MHZ
Type TWR Name TWR Frequency 118.3 MHZ
Airport Navaids
Type NDB Name Kobbe Frequency 283 KHZ
Type NDB Name Kvalsund Frequency 362 KHZ
Type NDB Name Lanes Frequency 268 KHZ
Type VOR-DME Name Tromso Frequency 113800 KHZ
Airport Weather Information & NOTAM
ADDS - METARS form results

(1700 UTC 28 September 2023)
Data provider http://aviationweather.gov/metar/data/
 
METAR text: ENTC 281650Z 05004KT CAVOK 09/05 Q1009 NOSIG RMK WIND 2600FT 17016KT
Conditions at: ENTC (TROMSO/LANGNES , NO) observed 1650 UTC 28 September 2023
Temperature: 9.0°C (48°F)
Dewpoint: 5.0°C (41°F) [RH = 76%]
Pressure (altimeter): 29.79 inches Hg (1009.0 mb)
Winds: from the NE (50 degrees) at 5 MPH (4 knots; 2.1 m/s)
Visibility: 6 or more miles (10+ km)
Ceiling: ceiling and visibility are OK
Clouds: unknown
Weather: no significant weather observed at this time

METAR text: ENTC 281620Z 02004KT CAVOK 09/06 Q1009 RMK WIND 2600FT 17016KT
Conditions at: ENTC (TROMSO/LANGNES , NO) observed 1620 UTC 28 September 2023
Temperature: 9.0°C (48°F)
Dewpoint: 6.0°C (43°F) [RH = 81%]
Pressure (altimeter): 29.79 inches Hg (1009.0 mb)
Winds: from the NNE (20 degrees) at 5 MPH (4 knots; 2.1 m/s)
Visibility: 6 or more miles (10+ km)
Ceiling: ceiling and visibility are OK
Clouds: unknown
Weather: no significant weather observed at this time

Forecast for: ENTC (TROMSO/LANGNES , NO)
Text: TAF ENTC 281100Z 2812/2912 20005KT 9999 FEW035
Forecast period: 1200 UTC 28 September 2023 to 1200 UTC 29 September 2023
Forecast type: FROM: standard forecast or significant change
Winds: from the SSW (200 degrees) at 6 MPH (5 knots; 2.6 m/s)
Visibility: 6 or more miles (10+ km)
Ceiling: at least 12,000 feet AGL
Clouds: few clouds at 3500 feet AGL
Weather: no significant weather forecast for this period
Text: PROB40 2816/2822 02010KT
Forecast period: 1600 to 2200 UTC 28 September 2023
Forecast type: PROBABLE: 40 percent likelihood of the following during this time
Winds: from the NNE (20 degrees) at 12 MPH (10 knots; 5.1 m/s)
Visibility: missing
Ceiling: unknown
Clouds: missing
Weather: no significant weather forecast for this period
Text: TEMPO 2909/2912 4000 RADZ SCT005 BKN012
Forecast period: 0900 to 1200 UTC 29 September 2023
Forecast type: TEMPORARY: The following changes expected for less than half the time period
Visibility: 2.49 miles (4.01 km)
Ceiling: 1200 feet AGL
Clouds: scattered clouds at 500 feet AGL
broken clouds at 1200 feet AGL
Weather: RA DZ  (moderate rain, moderate drizzle)